createdAt,value
2023-03-02T00:00:16.589Z,100113.94
2023-03-02T00:02:46.024Z,100102.16
2023-03-02T00:05:14.604Z,100104.94
2023-03-02T00:07:42.323Z,100100.75
2023-03-02T00:10:11.194Z,100093.84
2023-03-02T00:12:39.145Z,100102.97
2023-03-02T00:15:07.879Z,100092.41
2023-03-02T00:17:37.143Z,100094.53
2023-03-02T00:20:11.145Z,100099.00
2023-03-02T00:22:38.922Z,100093.91
2023-03-02T00:25:07.845Z,100093.88
2023-03-02T00:27:35.690Z,100090.91
2023-03-02T00:30:03.601Z,100090.34
2023-03-02T00:32:31.381Z,100091.97
2023-03-02T00:34:59.416Z,100093.63
2023-03-02T00:37:28.536Z,100095.94
2023-03-02T00:39:56.197Z,100104.66
2023-03-02T00:42:24.418Z,100095.38
2023-03-02T00:44:53.386Z,100095.41
2023-03-02T00:47:21.197Z,100089.34
2023-03-02T00:49:49.468Z,100088.69
2023-03-02T00:52:17.613Z,100087.59
2023-03-02T00:54:46.552Z,100074.97
2023-03-02T00:57:14.340Z,100077.78
2023-03-02T00:59:42.042Z,100086.13
2023-03-02T01:02:10.350Z,100080.78
2023-03-02T01:04:40.666Z,100079.13
2023-03-02T01:07:11.668Z,100075.00
2023-03-02T01:09:41.105Z,100068.91
2023-03-02T01:12:11.430Z,100076.31
2023-03-02T01:14:40.772Z,100067.22
2023-03-02T01:17:09.942Z,100058.47
2023-03-02T01:19:39.177Z,100057.22
2023-03-02T01:22:07.296Z,100062.44
2023-03-02T01:24:34.996Z,100060.91
2023-03-02T01:27:02.744Z,100055.22
2023-03-02T01:29:32.082Z,100052.06
2023-03-02T01:31:59.791Z,100055.47
2023-03-02T01:34:53.764Z,100049.72
2023-03-02T01:37:22.969Z,100050.19
2023-03-02T01:39:51.096Z,100045.19
2023-03-02T01:43:32.238Z,100045.53
2023-03-02T01:46:04.118Z,100040.22
2023-03-02T01:48:38.920Z,100042.41
2023-03-02T01:51:08.639Z,100034.50
2023-03-02T01:53:38.273Z,100035.09
2023-03-02T01:56:06.879Z,100031.06
2023-03-02T01:58:37.554Z,100031.97
2023-03-02T02:01:15.255Z,100029.28
2023-03-02T02:03:45.198Z,100030.41
2023-03-02T02:06:18.262Z,100019.47
2023-03-02T02:08:46.574Z,100015.81
2023-03-02T02:11:14.688Z,100021.03
2023-03-02T02:13:43.300Z,100015.69
2023-03-02T02:16:12.923Z,100014.66
2023-03-02T02:18:41.951Z,100005.69
2023-03-02T02:21:10.148Z,100016.56
2023-03-02T02:23:43.974Z,100012.59
2023-03-02T02:26:18.260Z,100014.69
2023-03-02T02:28:52.620Z,100010.22
2023-03-02T02:31:23.710Z,100005.19
2023-03-02T02:33:56.505Z,100009.53
2023-03-02T02:36:33.350Z,100006.94
2023-03-02T02:39:05.445Z,100001.53
2023-03-02T02:41:37.718Z,100010.28
2023-03-02T02:44:06.036Z,99999.63
2023-03-02T02:46:34.748Z,100011.97
2023-03-02T02:49:03.911Z,100007.59
2023-03-02T02:51:31.962Z,100005.59
2023-03-02T02:54:01.593Z,100004.66
2023-03-02T02:56:32.158Z,99999.38
2023-03-02T02:59:05.425Z,100005.41
2023-03-02T03:01:35.096Z,100002.78
2023-03-02T03:04:05.067Z,100003.41
2023-03-02T03:06:38.426Z,100003.00
2023-03-02T03:09:07.249Z,99997.91
2023-03-02T03:11:37.887Z,100003.56
2023-03-02T03:14:09.858Z,100001.97
2023-03-02T03:16:39.447Z,99990.28
2023-03-02T03:19:13.451Z,99995.72
2023-03-02T03:21:41.103Z,99996.53
2023-03-02T03:24:09.204Z,99998.94
2023-03-02T03:26:36.823Z,99993.22
2023-03-02T03:29:07.024Z,99982.88
2023-03-02T03:31:35.564Z,99991.22
2023-03-02T03:34:03.748Z,99987.25
2023-03-02T03:36:33.044Z,99990.72
2023-03-02T03:39:01.728Z,99993.41
2023-03-02T03:41:29.426Z,99994.66
2023-03-02T03:43:57.104Z,99998.94
2023-03-02T03:46:26.263Z,100002.72
2023-03-02T03:48:54.085Z,99997.59
2023-03-02T03:51:21.982Z,99997.50
2023-03-02T03:53:59.649Z,99989.25
2023-03-02T03:56:27.591Z,99994.34
2023-03-02T03:59:06.749Z,99992.16
2023-03-02T04:01:38.065Z,99991.75
2023-03-02T04:04:08.336Z,99994.47
2023-03-02T04:06:36.605Z,99998.84
2023-03-02T04:09:05.698Z,99998.28
2023-03-02T04:11:33.899Z,100003.00
2023-03-02T04:14:02.064Z,99999.69
2023-03-02T04:16:30.499Z,100006.88
2023-03-02T04:19:00.231Z,100011.75
2023-03-02T04:21:28.372Z,100007.94
2023-03-02T04:23:56.535Z,100004.25
2023-03-02T04:26:26.188Z,100002.59
2023-03-02T04:28:54.076Z,99996.34
2023-03-02T04:31:21.740Z,100002.56
2023-03-02T04:33:49.352Z,100003.22
2023-03-02T04:36:19.584Z,100003.00
2023-03-02T04:38:47.337Z,100003.66
2023-03-02T04:41:15.041Z,100003.13
2023-03-02T04:43:42.688Z,100001.25
2023-03-02T04:46:11.728Z,100004.69
2023-03-02T04:48:39.404Z,100009.19
2023-03-02T04:51:07.281Z,100003.41
2023-03-02T04:53:36.303Z,100014.50
2023-03-02T04:56:04.348Z,100010.53
2023-03-02T04:58:32.044Z,99993.63
2023-03-02T05:01:02.158Z,99999.88
2023-03-02T05:03:30.068Z,99999.97
2023-03-02T05:05:57.845Z,99988.31
2023-03-02T05:08:25.479Z,100000.72
2023-03-02T05:10:54.520Z,99995.09
2023-03-02T05:13:22.268Z,100001.13
2023-03-02T05:15:51.564Z,99996.25
2023-03-02T05:18:19.608Z,99998.03
2023-03-02T05:20:47.698Z,100000.72
2023-03-02T05:23:25.177Z,100004.47
2023-03-02T05:25:56.250Z,100004.91
2023-03-02T05:28:25.937Z,99998.84
2023-03-02T05:30:54.158Z,99996.84
2023-03-02T05:33:22.441Z,99993.09
2023-03-02T05:35:50.452Z,99995.91
2023-03-02T05:38:18.295Z,99998.94
2023-03-02T05:40:46.353Z,100000.50
2023-03-02T05:43:19.752Z,99998.84
2023-03-02T05:45:47.745Z,100011.38
2023-03-02T05:48:15.645Z,100008.22
2023-03-02T05:50:43.370Z,100004.69
2023-03-02T05:53:11.369Z,100003.13
2023-03-02T05:55:39.095Z,100008.41
2023-03-02T05:58:08.905Z,100015.28
2023-03-02T06:00:38.063Z,100009.56
2023-03-02T06:03:05.810Z,100014.69
2023-03-02T06:05:33.665Z,100017.72
2023-03-02T06:08:01.305Z,100013.25
2023-03-02T06:10:29.634Z,100018.00
2023-03-02T06:12:57.360Z,100019.25
2023-03-02T06:15:25.065Z,100011.03
2023-03-02T06:17:54.114Z,100018.44
2023-03-02T06:20:21.744Z,100016.03
2023-03-02T06:22:49.404Z,100029.28
2023-03-02T06:25:19.158Z,100029.72
2023-03-02T06:27:47.338Z,100034.09
2023-03-02T06:30:17.383Z,100030.75
2023-03-02T06:32:46.209Z,100027.72
2023-03-02T06:35:15.805Z,100044.09
2023-03-02T06:37:44.346Z,100027.00
2023-03-02T06:40:14.016Z,100036.72
2023-03-02T06:42:43.596Z,100031.59
2023-03-02T06:45:12.439Z,100031.78
2023-03-02T06:47:40.457Z,100030.34
2023-03-02T06:50:09.700Z,100039.50
2023-03-02T06:52:38.730Z,100040.88
2023-03-02T06:55:07.637Z,100041.59
2023-03-02T06:57:35.409Z,100034.81
2023-03-02T07:00:07.705Z,100038.91
2023-03-02T07:02:35.615Z,100040.06
2023-03-02T07:05:03.382Z,100036.19
2023-03-02T07:07:31.114Z,100043.28
2023-03-02T07:10:00.351Z,100044.97
2023-03-02T07:12:28.071Z,100034.19
2023-03-02T07:14:55.764Z,100044.97
2023-03-02T07:17:23.384Z,100047.25
2023-03-02T07:19:51.195Z,100041.19
2023-03-02T07:22:18.808Z,100044.50
2023-03-02T07:24:46.416Z,100050.00
2023-03-02T07:27:15.383Z,100039.84
2023-03-02T07:29:42.983Z,100041.75
2023-03-02T07:32:12.474Z,100036.00
2023-03-02T07:34:40.453Z,100042.97
2023-03-02T07:37:08.442Z,100043.03
2023-03-02T07:39:36.155Z,100038.25
2023-03-02T07:42:07.014Z,100042.50
2023-03-02T07:44:36.055Z,100034.00
2023-03-02T07:47:04.068Z,100040.28
2023-03-02T07:49:32.072Z,100035.44
2023-03-02T07:51:59.812Z,100033.28
2023-03-02T07:54:30.333Z,100039.38
2023-03-02T07:56:58.310Z,100046.59
2023-03-02T07:59:28.266Z,100039.19
2023-03-02T08:01:57.978Z,100047.16
2023-03-02T08:04:26.217Z,100041.00
2023-03-02T08:06:53.828Z,100048.59
2023-03-02T08:09:21.421Z,100043.50
2023-03-02T08:11:49.063Z,100036.34
2023-03-02T08:14:16.701Z,100045.03
2023-03-02T08:16:44.354Z,100042.63
2023-03-02T08:19:13.421Z,100046.56
2023-03-02T08:21:41.165Z,100036.91
2023-03-02T08:24:09.466Z,100046.78
2023-03-02T08:26:37.178Z,100040.63
2023-03-02T08:29:05.223Z,100048.31
2023-03-02T08:31:33.235Z,100044.56
2023-03-02T08:34:01.140Z,100039.72
2023-03-02T08:36:30.408Z,100047.56
2023-03-02T08:38:58.107Z,100042.72
2023-03-02T08:41:26.126Z,100038.13
2023-03-02T08:43:54.295Z,100035.25
2023-03-02T08:46:22.548Z,100031.91
2023-03-02T08:48:51.241Z,100028.25
2023-03-02T08:51:20.879Z,100019.69
2023-03-02T08:53:51.769Z,100019.25
2023-03-02T08:56:21.611Z,100021.47
2023-03-02T08:58:50.156Z,100019.13
2023-03-02T09:01:19.808Z,100022.03
2023-03-02T09:03:47.880Z,100021.75
2023-03-02T09:06:16.444Z,100024.94
2023-03-02T09:08:44.842Z,100028.31
2023-03-02T09:11:13.989Z,100018.09
2023-03-02T09:13:41.852Z,100008.22
2023-03-02T09:16:09.717Z,100015.47
2023-03-02T09:18:37.638Z,100017.50
2023-03-02T09:21:05.741Z,100012.63
2023-03-02T09:23:34.027Z,100007.53
2023-03-02T09:26:01.964Z,100001.31
2023-03-02T09:28:31.357Z,100008.28
2023-03-02T09:31:01.331Z,100007.94
2023-03-02T09:33:29.499Z,100011.56
2023-03-02T09:35:57.102Z,100008.84
2023-03-02T09:38:25.368Z,100002.75
2023-03-02T09:41:09.708Z,100008.13
2023-03-02T09:43:48.862Z,100001.84
2023-03-02T09:46:21.732Z,99999.03
2023-03-02T09:49:16.783Z,100001.00
2023-03-02T09:51:48.197Z,100000.16
2023-03-02T09:54:20.626Z,100005.94
2023-03-02T09:56:50.897Z,99997.53
2023-03-02T09:59:27.243Z,100002.72
2023-03-02T10:02:01.353Z,99999.25
2023-03-02T10:04:32.646Z,99992.22
2023-03-02T10:07:11.504Z,99999.25
2023-03-02T10:09:39.455Z,99995.22
2023-03-02T10:12:30.523Z,100000.88
2023-03-02T10:15:04.854Z,99998.22
2023-03-02T10:17:47.015Z,99988.25
2023-03-02T10:20:21.010Z,99991.53
2023-03-02T10:22:53.837Z,99994.69
2023-03-02T10:25:32.207Z,99995.94
2023-03-02T10:28:09.325Z,99993.00
2023-03-02T10:30:39.462Z,99989.38
2023-03-02T10:33:15.044Z,99987.75
2023-03-02T10:35:47.418Z,99976.50
2023-03-02T10:38:17.470Z,99975.88
2023-03-02T10:40:48.399Z,99973.28
2023-03-02T10:43:19.960Z,99975.13
2023-03-02T10:46:00.364Z,99967.59
2023-03-02T10:48:28.364Z,99954.25
2023-03-02T10:50:57.119Z,99958.72
2023-03-02T10:53:25.018Z,99965.50
2023-03-02T10:55:54.176Z,99961.41
2023-03-02T10:58:27.256Z,99960.72
2023-03-02T11:01:01.949Z,99959.66
2023-03-02T11:03:30.323Z,99948.56
2023-03-02T11:05:58.812Z,99940.53
2023-03-02T11:08:28.542Z,99938.94
2023-03-02T11:11:00.577Z,99938.38
2023-03-02T11:13:31.860Z,99932.84
2023-03-02T11:16:02.355Z,99940.75
2023-03-02T11:18:34.068Z,99930.66
2023-03-02T11:21:05.606Z,99923.16
2023-03-02T11:23:45.646Z,99929.28
2023-03-02T11:26:22.717Z,99935.44
2023-03-02T11:28:56.322Z,99923.41
2023-03-02T11:31:34.005Z,99921.22
2023-03-02T11:34:17.942Z,99928.47
2023-03-02T11:36:54.559Z,99927.81
2023-03-02T11:39:30.189Z,99921.94
2023-03-02T11:41:58.046Z,99920.69
2023-03-02T11:44:27.367Z,99918.16
2023-03-02T11:47:00.935Z,99919.06
2023-03-02T11:49:38.696Z,99903.94
2023-03-02T11:52:16.104Z,99909.81
2023-03-02T11:54:47.751Z,99913.72
2023-03-02T11:57:24.257Z,99907.28
2023-03-02T11:59:53.410Z,99904.38
2023-03-02T12:02:23.337Z,99908.69
2023-03-02T12:05:01.746Z,99899.72
2023-03-02T12:07:29.345Z,99897.50
2023-03-02T12:10:02.923Z,99891.53
2023-03-02T12:12:40.821Z,99890.50
2023-03-02T12:15:43.966Z,99879.91
2023-03-02T12:18:43.264Z,99889.09
2023-03-02T12:21:13.250Z,99876.09
2023-03-02T12:23:58.175Z,99884.44
2023-03-02T12:26:31.401Z,99877.75
2023-03-02T12:29:05.689Z,99869.97
2023-03-02T12:31:48.276Z,99871.78
2023-03-02T12:34:29.900Z,99868.03
2023-03-02T12:37:02.868Z,99869.06
2023-03-02T12:39:45.374Z,99867.47
2023-03-02T12:42:39.509Z,99863.78
2023-03-02T12:45:21.745Z,99863.22
2023-03-02T12:47:57.971Z,99855.88
2023-03-02T12:50:31.065Z,99863.94
2023-03-02T12:53:00.668Z,99848.50
2023-03-02T12:55:29.029Z,99856.56
2023-03-02T12:57:59.092Z,99848.38
2023-03-02T13:00:30.154Z,99847.50
2023-03-02T13:03:00.071Z,99843.81
2023-03-02T13:05:31.539Z,99837.19
2023-03-02T13:08:02.043Z,99835.97
2023-03-02T13:10:36.930Z,99851.22
2023-03-02T13:13:16.687Z,99842.44
2023-03-02T13:15:52.670Z,99841.09
2023-03-02T13:18:21.970Z,99834.53
2023-03-02T13:20:51.996Z,99833.25
2023-03-02T13:23:20.997Z,99829.44
2023-03-02T13:25:51.471Z,99831.91
2023-03-02T13:28:30.855Z,99832.03
2023-03-02T13:31:02.040Z,99831.72
2023-03-02T13:33:31.115Z,99830.84
2023-03-02T13:36:01.403Z,99832.69
2023-03-02T13:38:35.338Z,99824.69
2023-03-02T13:41:03.899Z,99830.13
2023-03-02T13:43:37.026Z,99828.53
2023-03-02T13:46:06.337Z,99829.84
2023-03-02T13:48:34.534Z,99832.09
2023-03-02T13:51:15.854Z,99833.16
2023-03-02T13:53:51.461Z,99831.03
2023-03-02T13:56:19.817Z,99831.81
2023-03-02T13:58:48.022Z,99825.44
2023-03-02T14:01:15.773Z,99828.38
2023-03-02T14:03:43.431Z,99826.13
2023-03-02T14:06:12.471Z,99818.59
2023-03-02T14:08:40.090Z,99830.94
2023-03-02T14:11:08.418Z,99828.72
2023-03-02T14:13:39.720Z,99818.75
2023-03-02T14:16:08.491Z,99819.22
2023-03-02T14:18:39.736Z,99818.47
2023-03-02T14:21:14.404Z,99813.53
2023-03-02T14:23:42.419Z,99811.63
2023-03-02T14:26:28.083Z,99813.53
2023-03-02T14:29:04.999Z,99821.03
2023-03-02T14:31:33.483Z,99814.56
2023-03-02T14:34:01.395Z,99812.16
2023-03-02T14:36:33.072Z,99820.66
2023-03-02T14:39:03.769Z,99814.44
2023-03-02T14:41:34.330Z,99812.84
2023-03-02T14:44:06.148Z,99807.34
2023-03-02T14:46:33.895Z,99813.00
2023-03-02T14:49:01.622Z,99797.66
2023-03-02T14:51:35.748Z,99803.97
2023-03-02T14:54:06.773Z,99808.59
2023-03-02T14:56:34.746Z,99804.31
2023-03-02T14:59:02.521Z,99805.56
2023-03-02T15:01:31.097Z,99796.50
2023-03-02T15:03:58.911Z,99803.19
2023-03-02T15:06:31.717Z,99798.31
2023-03-02T15:09:01.504Z,99799.50
2023-03-02T15:11:29.722Z,99800.41
2023-03-02T15:13:57.702Z,99793.78
2023-03-02T15:16:25.859Z,99796.13
2023-03-02T15:18:54.181Z,99808.00
2023-03-02T15:21:24.246Z,99803.81
2023-03-02T15:23:53.360Z,99799.44
2023-03-02T15:26:21.107Z,99799.09
2023-03-02T15:28:51.861Z,99806.22
2023-03-02T15:31:21.184Z,99798.88
2023-03-02T15:33:51.902Z,99806.75
2023-03-02T15:36:19.739Z,99808.94
2023-03-02T15:38:50.803Z,99807.75
2023-03-02T15:41:20.237Z,99807.09
2023-03-02T15:43:51.030Z,99806.28
2023-03-02T15:46:18.780Z,99808.31
2023-03-02T15:48:46.603Z,99800.16
2023-03-02T15:51:14.278Z,99799.50
2023-03-02T15:53:42.011Z,99798.47
2023-03-02T15:56:13.486Z,99801.59
2023-03-02T15:58:47.559Z,99800.94
2023-03-02T16:01:16.522Z,99806.75
2023-03-02T16:03:45.252Z,99804.84
2023-03-02T16:06:13.455Z,99815.25
2023-03-02T16:08:41.104Z,99811.75
2023-03-02T16:11:09.770Z,99810.78
2023-03-02T16:13:37.538Z,99809.22
2023-03-02T16:16:07.530Z,99813.19
2023-03-02T16:18:35.220Z,99808.25
2023-03-02T16:21:03.532Z,99813.31
2023-03-02T16:23:31.135Z,99811.06
2023-03-02T16:26:08.493Z,99810.09
2023-03-02T16:28:36.192Z,99811.47
2023-03-02T16:31:06.708Z,99815.06
2023-03-02T16:33:34.869Z,99819.56
2023-03-02T16:36:02.676Z,99825.53
2023-03-02T16:38:30.519Z,99833.53
2023-03-02T16:40:58.193Z,99831.19
2023-03-02T16:43:26.165Z,99831.19
2023-03-02T16:45:53.968Z,99836.50
2023-03-02T16:48:23.408Z,99840.47
2023-03-02T16:50:56.191Z,99836.69
2023-03-02T16:53:24.225Z,99843.66
2023-03-02T16:55:52.121Z,99850.59
2023-03-02T16:58:19.762Z,99853.59
2023-03-02T17:00:47.430Z,99848.75
2023-03-02T17:03:16.576Z,99853.06
2023-03-02T17:05:45.510Z,99856.38
2023-03-02T17:08:15.102Z,99858.66
2023-03-02T17:10:43.302Z,99857.34
2023-03-02T17:13:15.288Z,99856.66
2023-03-02T17:15:43.347Z,99851.81
2023-03-02T17:18:11.873Z,99863.22
2023-03-02T17:20:39.696Z,99860.72
2023-03-02T17:23:08.702Z,99858.75
2023-03-02T17:25:36.348Z,99864.97
2023-03-02T17:28:04.134Z,99860.22
2023-03-02T17:30:32.112Z,99865.78
2023-03-02T17:32:59.770Z,99870.75
2023-03-02T17:35:27.508Z,99872.19
2023-03-02T17:37:55.257Z,99878.44
2023-03-02T17:40:24.810Z,99883.88
2023-03-02T17:42:54.934Z,99887.41
2023-03-02T17:45:26.587Z,99892.63
2023-03-02T17:47:55.523Z,99898.94
2023-03-02T17:50:24.384Z,99890.19
2023-03-02T17:52:52.161Z,99901.31
2023-03-02T17:55:19.994Z,99895.91
2023-03-02T17:57:49.403Z,99901.31
2023-03-02T18:00:19.792Z,99904.13
2023-03-02T18:02:48.035Z,99906.38
2023-03-02T18:05:15.916Z,99908.72
2023-03-02T18:07:43.598Z,99914.38
2023-03-02T18:10:12.709Z,99909.09
2023-03-02T18:12:40.660Z,99914.22
2023-03-02T18:15:11.184Z,99923.91
2023-03-02T18:17:39.161Z,99918.31
2023-03-02T18:20:08.087Z,99920.84
2023-03-02T18:22:35.871Z,99928.06
2023-03-02T18:25:03.562Z,99926.94
2023-03-02T18:27:31.506Z,99925.34
2023-03-02T18:29:59.223Z,99931.75
2023-03-02T18:32:28.415Z,99932.44
2023-03-02T18:34:56.190Z,99935.72
2023-03-02T18:37:23.908Z,99940.53
2023-03-02T18:39:51.604Z,99937.00
2023-03-02T18:42:19.246Z,99938.88
2023-03-02T18:44:47.297Z,99934.72
2023-03-02T18:47:17.998Z,99938.03
2023-03-02T18:49:47.403Z,99938.81
2023-03-02T18:52:16.623Z,99942.31
2023-03-02T18:54:44.428Z,99938.84
2023-03-02T18:57:12.069Z,99940.66
2023-03-02T18:59:40.244Z,99939.53
2023-03-02T19:02:08.162Z,99952.34
2023-03-02T19:04:35.816Z,99958.13
2023-03-02T19:07:06.945Z,99955.16
2023-03-02T19:09:35.136Z,99961.47
2023-03-02T19:12:04.556Z,99954.63
2023-03-02T19:14:32.223Z,99967.13
2023-03-02T19:17:00.124Z,99964.69
2023-03-02T19:19:28.726Z,99965.28
2023-03-02T19:21:56.524Z,99961.69
2023-03-02T19:24:25.536Z,99965.66
2023-03-02T19:26:53.201Z,99973.75
2023-03-02T19:29:22.289Z,99967.06
2023-03-02T19:31:50.491Z,99968.34
2023-03-02T19:34:18.323Z,99963.47
2023-03-02T19:36:46.645Z,99974.59
2023-03-02T19:39:14.925Z,99968.53
2023-03-02T19:41:45.552Z,99980.56
2023-03-02T19:44:13.575Z,99973.03
2023-03-02T19:46:41.415Z,99983.72
2023-03-02T19:49:09.464Z,99976.78
2023-03-02T19:51:37.362Z,99982.44
2023-03-02T19:54:05.319Z,99977.75
2023-03-02T19:56:35.143Z,99987.78
2023-03-02T19:59:04.345Z,99990.13
2023-03-02T20:01:32.065Z,99985.72
2023-03-02T20:04:00.172Z,99984.06
2023-03-02T20:06:31.156Z,99991.84
2023-03-02T20:09:02.584Z,99992.38
2023-03-02T20:11:31.274Z,99990.06
2023-03-02T20:14:02.029Z,100000.44
2023-03-02T20:16:32.095Z,100002.38
2023-03-02T20:19:02.077Z,100007.78
2023-03-02T20:21:29.835Z,100006.81
2023-03-02T20:23:57.987Z,100004.59
2023-03-02T20:26:27.032Z,100016.75
2023-03-02T20:28:58.977Z,100013.00
2023-03-02T20:31:27.976Z,100017.22
2023-03-02T20:33:57.496Z,100018.81
2023-03-02T20:36:28.429Z,100013.63
2023-03-02T20:38:59.051Z,100019.34
2023-03-02T20:41:27.016Z,100026.63
2023-03-02T20:43:54.996Z,100022.28
2023-03-02T20:46:26.287Z,100035.19
2023-03-02T20:48:54.844Z,100027.13
2023-03-02T20:51:24.339Z,100036.50
2023-03-02T20:53:53.138Z,100023.41
2023-03-02T20:56:22.295Z,100027.44
2023-03-02T20:58:51.058Z,100024.94
2023-03-02T21:01:20.777Z,100024.50
2023-03-02T21:03:48.632Z,100033.06
2023-03-02T21:06:16.927Z,100030.88
2023-03-02T21:08:47.339Z,100040.38
2023-03-02T21:11:17.724Z,100049.19
2023-03-02T21:13:46.955Z,100045.19
2023-03-02T21:16:18.536Z,100039.47
2023-03-02T21:18:46.342Z,100042.75
2023-03-02T21:21:14.146Z,100056.31
2023-03-02T21:23:42.071Z,100048.16
2023-03-02T21:26:12.868Z,100050.53
2023-03-02T21:28:43.970Z,100041.56
2023-03-02T21:31:12.632Z,100048.19
2023-03-02T21:33:40.509Z,100047.31
2023-03-02T21:36:09.352Z,100041.56
2023-03-02T21:38:37.006Z,100034.88
2023-03-02T21:41:04.772Z,100036.28
2023-03-02T21:43:34.110Z,100036.66
2023-03-02T21:46:02.336Z,100045.00
2023-03-02T21:48:30.175Z,100045.63
2023-03-02T21:50:57.914Z,100042.69
2023-03-02T21:53:25.530Z,100033.41
2023-03-02T21:55:54.970Z,100037.69
2023-03-02T21:58:23.454Z,100038.38
2023-03-02T22:00:52.399Z,100043.16
2023-03-02T22:03:20.090Z,100033.25
2023-03-02T22:05:47.784Z,100033.13
2023-03-02T22:08:18.577Z,100038.19
2023-03-02T22:10:48.591Z,100042.56
2023-03-02T22:13:20.323Z,100041.13
2023-03-02T22:15:49.076Z,100049.13
2023-03-02T22:18:19.940Z,100045.88
2023-03-02T22:20:49.389Z,100047.28
2023-03-02T22:23:19.484Z,100037.22
2023-03-02T22:25:47.733Z,100040.50
2023-03-02T22:28:18.004Z,100039.38
2023-03-02T22:30:45.899Z,100044.13
2023-03-02T22:33:20.721Z,100042.28
2023-03-02T22:35:48.840Z,100042.28
2023-03-02T22:38:23.392Z,100047.56
2023-03-02T22:40:51.539Z,100045.50
2023-03-02T22:43:25.520Z,100044.50
2023-03-02T22:45:53.566Z,100043.66
2023-03-02T22:48:25.578Z,100045.03
2023-03-02T22:50:53.217Z,100050.03
2023-03-02T22:53:25.101Z,100050.47
2023-03-02T22:55:57.423Z,100055.09
2023-03-02T22:58:29.900Z,100060.75
2023-03-02T23:00:58.431Z,100060.47
2023-03-02T23:03:36.832Z,100056.09
2023-03-02T23:06:34.280Z,100054.03
2023-03-02T23:09:04.856Z,100059.34
2023-03-02T23:11:35.047Z,100065.06
2023-03-02T23:14:03.950Z,100064.00
2023-03-02T23:16:36.186Z,100068.00
2023-03-02T23:19:05.786Z,100060.59
2023-03-02T23:21:39.828Z,100061.84
2023-03-02T23:24:09.239Z,100063.50
2023-03-02T23:26:37.270Z,100066.25
2023-03-02T23:29:05.999Z,100065.81
2023-03-02T23:31:33.804Z,100054.13
2023-03-02T23:34:01.405Z,100058.50
2023-03-02T23:36:31.958Z,100060.91
2023-03-02T23:38:59.789Z,100057.47
2023-03-02T23:41:27.778Z,100062.53
2023-03-02T23:43:55.485Z,100061.09
2023-03-02T23:46:23.132Z,100061.41
2023-03-02T23:48:51.679Z,100063.03
2023-03-02T23:51:19.507Z,100062.81
2023-03-02T23:53:48.506Z,100063.72
2023-03-02T23:56:16.191Z,100069.59
2023-03-02T23:58:43.876Z,100066.56
